createdAt,value
2023-05-19T00:00:44.575Z,633.00
2023-05-19T00:01:43.379Z,632.00
2023-05-19T00:02:43.543Z,636.00
2023-05-19T00:03:44.071Z,633.00
2023-05-19T00:04:43.364Z,633.00
2023-05-19T00:05:43.401Z,633.00
2023-05-19T00:06:43.334Z,633.00
2023-05-19T00:07:43.319Z,630.00
2023-05-19T00:08:43.314Z,635.00
2023-05-19T00:09:43.339Z,634.00
2023-05-19T00:10:43.305Z,635.00
2023-05-19T00:11:43.315Z,633.00
2023-05-19T00:12:43.338Z,634.00
2023-05-19T00:13:43.302Z,633.00
2023-05-19T00:14:43.288Z,632.00
2023-05-19T00:15:43.272Z,633.00
2023-05-19T00:16:43.272Z,633.00
2023-05-19T00:17:43.312Z,634.00
2023-05-19T00:18:43.285Z,635.00
2023-05-19T00:19:43.251Z,630.00
2023-05-19T00:20:43.240Z,633.00
2023-05-19T00:21:43.241Z,631.00
2023-05-19T00:22:43.199Z,633.00
2023-05-19T00:23:43.228Z,632.00
2023-05-19T00:24:43.204Z,631.00
2023-05-19T00:25:43.258Z,631.00
2023-05-19T00:26:43.201Z,632.00
2023-05-19T00:27:43.184Z,631.00
2023-05-19T00:28:43.171Z,630.00
2023-05-19T00:29:43.203Z,631.00
2023-05-19T00:30:43.165Z,631.00
2023-05-19T00:31:43.235Z,633.00
2023-05-19T00:32:43.194Z,632.00
2023-05-19T00:33:43.149Z,631.00
2023-05-19T00:34:43.179Z,631.00
2023-05-19T00:35:43.172Z,634.00
2023-05-19T00:36:43.132Z,632.00
2023-05-19T00:37:43.156Z,632.00
2023-05-19T00:38:43.119Z,631.00
2023-05-19T00:39:43.123Z,631.00
2023-05-19T00:40:43.105Z,632.00
2023-05-19T00:41:43.095Z,632.00
2023-05-19T00:42:43.109Z,632.00
2023-05-19T00:43:43.060Z,630.00
2023-05-19T00:44:43.118Z,632.00
2023-05-19T00:45:43.194Z,632.00
2023-05-19T00:46:43.239Z,630.00
2023-05-19T00:47:43.244Z,634.00
2023-05-19T00:48:43.282Z,634.00
2023-05-19T00:49:43.337Z,631.00
2023-05-19T00:50:43.365Z,632.00
2023-05-19T00:51:43.375Z,630.00
2023-05-19T00:52:43.432Z,632.00
2023-05-19T00:53:43.453Z,632.00
2023-05-19T00:54:43.501Z,629.00
2023-05-19T00:55:43.525Z,632.00
2023-05-19T00:56:43.572Z,631.00
2023-05-19T00:57:43.621Z,632.00
2023-05-19T00:58:43.641Z,632.00
2023-05-19T00:59:43.639Z,633.00
2023-05-19T01:00:43.681Z,632.00
2023-05-19T01:01:43.765Z,630.00
2023-05-19T01:02:43.734Z,632.00
2023-05-19T01:03:43.802Z,631.00
2023-05-19T01:04:43.685Z,631.00
2023-05-19T01:05:43.689Z,629.00
2023-05-19T01:06:43.745Z,633.00
2023-05-19T01:07:43.799Z,631.00
2023-05-19T01:08:43.794Z,632.00
2023-05-19T01:09:43.810Z,630.00
2023-05-19T01:10:43.831Z,630.00
2023-05-19T01:11:43.934Z,630.00
2023-05-19T01:12:43.868Z,629.00
2023-05-19T01:13:43.893Z,629.00
2023-05-19T01:14:43.915Z,631.00
2023-05-19T01:15:43.922Z,633.00
2023-05-19T01:16:44.005Z,634.00
2023-05-19T01:17:44.008Z,631.00
2023-05-19T01:18:43.952Z,632.00
2023-05-19T01:19:43.983Z,633.00
2023-05-19T01:20:43.989Z,630.00
2023-05-19T01:21:43.984Z,632.00
2023-05-19T01:22:43.997Z,631.00
2023-05-19T01:23:44.030Z,631.00
2023-05-19T01:24:44.025Z,630.00
2023-05-19T01:25:44.051Z,631.00
2023-05-19T01:26:44.045Z,632.00
2023-05-19T01:27:44.071Z,630.00
2023-05-19T01:28:44.075Z,632.00
2023-05-19T01:29:44.084Z,631.00
2023-05-19T01:30:44.097Z,632.00
2023-05-19T01:31:44.135Z,629.00
2023-05-19T01:32:44.194Z,631.00
2023-05-19T01:33:44.090Z,631.00
2023-05-19T01:34:44.080Z,632.00
2023-05-19T01:35:44.144Z,632.00
2023-05-19T01:36:44.085Z,631.00
2023-05-19T01:37:44.110Z,630.00
2023-05-19T01:38:44.107Z,632.00
2023-05-19T01:39:44.116Z,634.00
2023-05-19T01:40:44.114Z,632.00
2023-05-19T01:41:44.156Z,629.00
2023-05-19T01:42:44.152Z,631.00
2023-05-19T01:43:44.161Z,630.00
2023-05-19T01:44:44.192Z,628.00
2023-05-19T01:45:44.219Z,630.00
2023-05-19T01:46:44.184Z,630.00
2023-05-19T01:47:44.240Z,632.00
2023-05-19T01:48:44.197Z,632.00
2023-05-19T01:49:44.182Z,632.00
2023-05-19T01:50:44.204Z,632.00
2023-05-19T01:51:44.196Z,629.00
2023-05-19T01:52:44.198Z,632.00
2023-05-19T01:53:44.212Z,632.00
2023-05-19T01:54:44.188Z,631.00
2023-05-19T01:55:44.184Z,633.00
2023-05-19T01:56:44.208Z,633.00
2023-05-19T01:57:44.217Z,632.00
2023-05-19T01:58:44.243Z,632.00
2023-05-19T01:59:44.198Z,632.00
2023-05-19T02:00:44.238Z,633.00
2023-05-19T02:01:44.230Z,632.00
2023-05-19T02:02:44.271Z,631.00
2023-05-19T02:03:44.243Z,631.00
2023-05-19T02:04:44.359Z,631.00
2023-05-19T02:05:44.231Z,632.00
2023-05-19T02:06:44.248Z,628.00
2023-05-19T02:07:44.197Z,633.00
2023-05-19T02:08:44.187Z,633.00
2023-05-19T02:09:44.244Z,633.00
2023-05-19T02:10:44.203Z,631.00
2023-05-19T02:11:44.208Z,629.00
2023-05-19T02:12:44.237Z,628.00
2023-05-19T02:13:44.237Z,633.00
2023-05-19T02:14:44.245Z,634.00
2023-05-19T02:15:44.258Z,632.00
2023-05-19T02:16:44.249Z,635.00
2023-05-19T02:17:44.254Z,634.00
2023-05-19T02:18:44.308Z,631.00
2023-05-19T02:19:44.253Z,631.00
2023-05-19T02:20:44.256Z,632.00
2023-05-19T02:21:44.263Z,631.00
2023-05-19T02:22:44.274Z,633.00
2023-05-19T02:23:44.301Z,633.00
2023-05-19T02:24:44.297Z,633.00
2023-05-19T02:25:44.305Z,633.00
2023-05-19T02:26:44.301Z,631.00
2023-05-19T02:27:44.313Z,630.00
2023-05-19T02:28:44.299Z,630.00
2023-05-19T02:29:44.284Z,630.00
2023-05-19T02:30:44.273Z,632.00
2023-05-19T02:31:44.340Z,629.00
2023-05-19T02:32:44.276Z,634.00
2023-05-19T02:33:44.254Z,632.00
2023-05-19T02:34:44.249Z,632.00
2023-05-19T02:35:44.268Z,633.00
2023-05-19T02:36:44.257Z,632.00
2023-05-19T02:37:44.291Z,632.00
2023-05-19T02:38:44.246Z,633.00
2023-05-19T02:39:44.252Z,633.00
2023-05-19T02:40:44.254Z,634.00
2023-05-19T02:41:44.226Z,634.00
2023-05-19T02:42:44.253Z,633.00
2023-05-19T02:43:44.226Z,633.00
2023-05-19T02:44:44.217Z,630.00
2023-05-19T02:45:44.200Z,633.00
2023-05-19T02:46:44.405Z,633.00
2023-05-19T02:47:44.253Z,633.00
2023-05-19T02:48:44.193Z,633.00
2023-05-19T02:49:44.250Z,633.00
2023-05-19T02:50:44.209Z,634.00
2023-05-19T02:51:44.204Z,633.00
2023-05-19T02:52:44.214Z,632.00
2023-05-19T02:53:44.236Z,634.00
2023-05-19T02:54:44.216Z,634.00
2023-05-19T02:55:44.221Z,634.00
2023-05-19T02:56:44.216Z,634.00
2023-05-19T02:57:44.212Z,634.00
2023-05-19T02:58:44.179Z,633.00
2023-05-19T02:59:44.163Z,634.00
2023-05-19T03:00:44.189Z,635.00
2023-05-19T03:01:44.253Z,635.00
2023-05-19T03:02:44.324Z,635.00
2023-05-19T03:03:44.317Z,632.00
2023-05-19T03:04:44.204Z,632.00
2023-05-19T03:05:44.185Z,635.00
2023-05-19T03:06:44.168Z,632.00
2023-05-19T03:07:44.190Z,633.00
2023-05-19T03:08:44.176Z,633.00
2023-05-19T03:09:44.186Z,634.00
2023-05-19T03:10:44.194Z,634.00
2023-05-19T03:11:44.194Z,634.00
2023-05-19T03:12:44.170Z,635.00
2023-05-19T03:13:44.169Z,633.00
2023-05-19T03:14:44.173Z,631.00
2023-05-19T03:15:44.167Z,633.00
2023-05-19T03:16:44.259Z,631.00
2023-05-19T03:17:44.258Z,633.00
2023-05-19T03:18:44.201Z,633.00
2023-05-19T03:19:44.209Z,632.00
2023-05-19T03:20:44.191Z,633.00
2023-05-19T03:21:44.157Z,631.00
2023-05-19T03:22:44.159Z,633.00
2023-05-19T03:23:44.154Z,633.00
2023-05-19T03:24:44.191Z,633.00
2023-05-19T03:25:44.171Z,631.00
2023-05-19T03:26:44.205Z,632.00
2023-05-19T03:27:44.176Z,633.00
2023-05-19T03:28:44.161Z,634.00
2023-05-19T03:29:44.180Z,632.00
2023-05-19T03:30:44.190Z,632.00
2023-05-19T03:31:44.198Z,630.00
2023-05-19T03:32:44.226Z,631.00
2023-05-19T03:33:44.256Z,633.00
2023-05-19T03:34:44.199Z,633.00
2023-05-19T03:35:44.180Z,633.00
2023-05-19T03:36:44.194Z,635.00
2023-05-19T03:37:44.242Z,635.00
2023-05-19T03:38:44.208Z,634.00
2023-05-19T03:39:44.216Z,633.00
2023-05-19T03:40:44.221Z,634.00
2023-05-19T03:41:44.324Z,634.00
2023-05-19T03:42:44.192Z,633.00
2023-05-19T03:43:44.196Z,633.00
2023-05-19T03:44:44.235Z,633.00
2023-05-19T03:45:44.217Z,634.00
2023-05-19T03:46:44.218Z,632.00
2023-05-19T03:47:44.213Z,632.00
2023-05-19T03:48:44.237Z,632.00
2023-05-19T03:49:44.193Z,631.00
2023-05-19T03:50:44.219Z,632.00
2023-05-19T03:51:44.220Z,632.00
2023-05-19T03:52:44.207Z,634.00
2023-05-19T03:53:44.190Z,630.00
2023-05-19T03:54:44.194Z,631.00
2023-05-19T03:55:44.223Z,630.00
2023-05-19T03:56:44.237Z,632.00
2023-05-19T03:57:44.198Z,635.00
2023-05-19T03:58:44.253Z,631.00
2023-05-19T03:59:44.228Z,630.00
2023-05-19T04:00:44.217Z,633.00
2023-05-19T04:01:44.238Z,631.00
2023-05-19T04:02:44.493Z,632.00
2023-05-19T04:03:44.295Z,632.00
2023-05-19T04:04:44.315Z,634.00
2023-05-19T04:05:44.225Z,632.00
2023-05-19T04:06:44.248Z,633.00
2023-05-19T04:07:44.230Z,631.00
2023-05-19T04:08:44.226Z,633.00
2023-05-19T04:09:44.221Z,632.00
2023-05-19T04:10:44.214Z,633.00
2023-05-19T04:11:44.238Z,633.00
2023-05-19T04:12:44.249Z,634.00
2023-05-19T04:13:45.285Z,634.00
2023-05-19T04:14:44.266Z,634.00
2023-05-19T04:15:44.239Z,630.00
2023-05-19T04:16:44.284Z,631.00
2023-05-19T04:17:44.259Z,632.00
2023-05-19T04:18:44.285Z,633.00
2023-05-19T04:19:44.236Z,632.00
2023-05-19T04:20:44.232Z,632.00
2023-05-19T04:21:44.252Z,632.00
2023-05-19T04:22:44.245Z,632.00
2023-05-19T04:23:44.280Z,633.00
2023-05-19T04:24:44.253Z,630.00
2023-05-19T04:25:44.249Z,633.00
2023-05-19T04:26:44.227Z,634.00
2023-05-19T04:27:44.264Z,630.00
2023-05-19T04:28:44.234Z,632.00
2023-05-19T04:29:44.253Z,633.00
2023-05-19T04:30:44.244Z,633.00
2023-05-19T04:31:44.369Z,632.00
2023-05-19T04:32:44.258Z,631.00
2023-05-19T04:33:44.248Z,632.00
2023-05-19T04:34:44.256Z,631.00
2023-05-19T04:35:44.248Z,631.00
2023-05-19T04:36:44.239Z,634.00
2023-05-19T04:37:44.233Z,631.00
2023-05-19T04:38:44.255Z,630.00
2023-05-19T04:39:44.232Z,631.00
2023-05-19T04:40:44.274Z,632.00
2023-05-19T04:41:44.263Z,630.00
2023-05-19T04:42:44.248Z,629.00
2023-05-19T04:43:44.249Z,631.00
2023-05-19T04:44:44.240Z,632.00
2023-05-19T04:45:44.292Z,632.00
2023-05-19T04:46:44.302Z,631.00
2023-05-19T04:47:44.313Z,631.00
2023-05-19T04:48:44.282Z,630.00
2023-05-19T04:49:44.251Z,630.00
2023-05-19T04:50:44.283Z,631.00
2023-05-19T04:51:44.269Z,631.00
2023-05-19T04:52:44.308Z,630.00
2023-05-19T04:53:44.255Z,631.00
2023-05-19T04:54:44.285Z,630.00
2023-05-19T04:55:44.325Z,631.00
2023-05-19T04:56:44.299Z,631.00
2023-05-19T04:57:44.321Z,626.00
2023-05-19T04:58:44.330Z,629.00
2023-05-19T04:59:44.333Z,631.00
2023-05-19T05:00:44.326Z,627.00
2023-05-19T05:01:44.423Z,633.00
2023-05-19T05:02:44.420Z,633.00
2023-05-19T05:03:44.440Z,631.00
2023-05-19T05:04:44.353Z,633.00
2023-05-19T05:05:44.343Z,632.00
2023-05-19T05:06:44.346Z,630.00
2023-05-19T05:07:44.339Z,630.00
2023-05-19T05:08:44.326Z,631.00
2023-05-19T05:09:44.321Z,632.00
2023-05-19T05:10:44.317Z,631.00
2023-05-19T05:11:44.321Z,631.00
2023-05-19T05:12:44.303Z,632.00
2023-05-19T05:13:44.331Z,632.00
2023-05-19T05:14:44.296Z,634.00
2023-05-19T05:15:44.282Z,631.00
2023-05-19T05:16:44.382Z,634.00
2023-05-19T05:17:44.385Z,634.00
2023-05-19T05:18:45.063Z,635.00
2023-05-19T05:19:44.286Z,637.00
2023-05-19T05:20:44.323Z,640.00
2023-05-19T05:21:44.289Z,638.00
2023-05-19T05:22:44.298Z,634.00
2023-05-19T05:23:44.307Z,637.00
2023-05-19T05:24:44.293Z,634.00
2023-05-19T05:25:44.269Z,639.00
2023-05-19T05:26:44.291Z,637.00
2023-05-19T05:27:44.287Z,636.00
2023-05-19T05:28:44.284Z,639.00
2023-05-19T05:29:44.293Z,638.00
2023-05-19T05:30:44.288Z,638.00
2023-05-19T05:31:44.253Z,637.00
2023-05-19T05:32:44.361Z,640.00
2023-05-19T05:33:44.317Z,640.00
2023-05-19T05:34:44.290Z,643.00
2023-05-19T05:35:44.251Z,640.00
2023-05-19T05:36:44.270Z,637.00
2023-05-19T05:37:45.164Z,637.00
2023-05-19T05:38:44.274Z,637.00
2023-05-19T05:39:44.240Z,640.00
2023-05-19T05:40:44.227Z,640.00
2023-05-19T05:41:44.270Z,641.00
2023-05-19T05:42:44.248Z,641.00
2023-05-19T05:43:44.255Z,643.00
2023-05-19T05:44:44.243Z,648.00
2023-05-19T05:45:44.293Z,646.00
2023-05-19T05:46:44.211Z,648.00
2023-05-19T05:47:44.238Z,653.00
2023-05-19T05:48:44.213Z,656.00
2023-05-19T05:49:44.247Z,651.00
2023-05-19T05:50:44.220Z,656.00
2023-05-19T05:51:54.255Z,670.00
2023-05-19T05:52:45.193Z,670.00
2023-05-19T05:53:44.176Z,670.00
2023-05-19T05:54:44.210Z,671.00
2023-05-19T05:55:44.190Z,664.00
2023-05-19T05:56:44.172Z,676.00
2023-05-19T05:57:44.185Z,664.00
2023-05-19T05:58:44.156Z,660.00
2023-05-19T05:59:44.155Z,661.00
2023-05-19T06:00:44.178Z,663.00
2023-05-19T06:01:44.151Z,658.00
2023-05-19T06:02:44.238Z,655.00
2023-05-19T06:03:44.153Z,654.00
2023-05-19T06:04:44.118Z,654.00
2023-05-19T06:05:44.209Z,654.00
2023-05-19T06:06:44.101Z,653.00
2023-05-19T06:07:44.107Z,653.00
2023-05-19T06:08:44.096Z,647.00
2023-05-19T06:09:44.065Z,648.00
2023-05-19T06:10:45.804Z,646.00
2023-05-19T06:11:44.107Z,650.00
2023-05-19T06:12:44.101Z,653.00
2023-05-19T06:13:44.077Z,651.00
2023-05-19T06:14:44.061Z,648.00
2023-05-19T06:15:44.176Z,644.00
2023-05-19T06:16:44.042Z,644.00
2023-05-19T06:17:44.085Z,642.00
2023-05-19T06:18:44.056Z,642.00
2023-05-19T06:19:44.023Z,642.00
2023-05-19T06:20:44.005Z,642.00
2023-05-19T06:21:44.027Z,644.00
2023-05-19T06:22:43.996Z,640.00
2023-05-19T06:23:43.994Z,641.00
2023-05-19T06:24:43.964Z,641.00
2023-05-19T06:25:43.999Z,640.00
2023-05-19T06:26:44.004Z,640.00
2023-05-19T06:27:43.981Z,640.00
2023-05-19T06:28:43.967Z,639.00
2023-05-19T06:29:43.944Z,639.00
2023-05-19T06:30:43.944Z,637.00
2023-05-19T06:31:43.997Z,637.00
2023-05-19T06:32:43.978Z,638.00
2023-05-19T06:33:43.900Z,636.00
2023-05-19T06:34:43.919Z,636.00
2023-05-19T06:35:43.883Z,637.00
2023-05-19T06:36:43.922Z,635.00
2023-05-19T06:37:43.877Z,637.00
2023-05-19T06:38:43.900Z,637.00
2023-05-19T06:39:43.881Z,636.00
2023-05-19T06:40:43.882Z,635.00
2023-05-19T06:41:43.879Z,637.00
2023-05-19T06:42:43.883Z,637.00
2023-05-19T06:43:43.837Z,635.00
2023-05-19T06:44:43.840Z,637.00
2023-05-19T06:45:43.854Z,638.00
2023-05-19T06:46:43.894Z,637.00
2023-05-19T06:47:43.826Z,633.00
2023-05-19T06:48:43.818Z,636.00
2023-05-19T06:49:43.794Z,639.00
2023-05-19T06:50:43.804Z,636.00
2023-05-19T06:51:43.798Z,635.00
2023-05-19T06:52:43.780Z,636.00
2023-05-19T06:53:43.826Z,638.00
2023-05-19T06:54:43.784Z,636.00
2023-05-19T06:55:57.517Z,637.00
2023-05-19T06:56:44.779Z,637.00
2023-05-19T06:57:43.761Z,638.00
2023-05-19T06:58:43.784Z,638.00
2023-05-19T06:59:43.709Z,637.00
2023-05-19T07:00:43.708Z,637.00
2023-05-19T07:01:43.725Z,638.00
2023-05-19T07:02:43.823Z,635.00
2023-05-19T07:03:43.820Z,638.00
2023-05-19T07:04:43.731Z,637.00
2023-05-19T07:05:43.814Z,634.00
2023-05-19T07:06:43.861Z,636.00
2023-05-19T07:07:43.924Z,637.00
2023-05-19T07:08:43.974Z,636.00
2023-05-19T07:09:44.114Z,637.00
2023-05-19T07:10:44.089Z,638.00
2023-05-19T07:11:44.165Z,636.00
2023-05-19T07:12:44.228Z,637.00
2023-05-19T07:13:44.298Z,636.00
2023-05-19T07:14:44.353Z,635.00
2023-05-19T07:15:44.439Z,638.00
2023-05-19T07:16:44.506Z,635.00
2023-05-19T07:17:44.597Z,634.00
2023-05-19T07:18:44.640Z,635.00
2023-05-19T07:19:44.671Z,634.00
2023-05-19T07:20:44.739Z,634.00
2023-05-19T07:21:44.781Z,635.00
2023-05-19T07:22:44.844Z,633.00
2023-05-19T07:23:44.900Z,632.00
2023-05-19T07:24:44.961Z,633.00
2023-05-19T07:25:45.037Z,633.00
2023-05-19T07:26:45.116Z,634.00
2023-05-19T07:27:45.147Z,635.00
2023-05-19T07:28:45.221Z,633.00
2023-05-19T07:29:45.270Z,634.00
2023-05-19T07:30:45.389Z,632.00
2023-05-19T07:31:45.410Z,634.00
2023-05-19T07:32:45.503Z,635.00
2023-05-19T07:33:45.501Z,635.00
2023-05-19T07:34:45.537Z,633.00
2023-05-19T07:35:45.579Z,635.00
2023-05-19T07:36:45.662Z,634.00
2023-05-19T07:37:45.728Z,633.00
2023-05-19T07:38:45.788Z,634.00
2023-05-19T07:39:45.822Z,634.00
2023-05-19T07:40:45.868Z,635.00
2023-05-19T07:41:45.955Z,636.00
2023-05-19T07:42:45.985Z,634.00
2023-05-19T07:43:46.046Z,636.00
2023-05-19T07:44:46.109Z,636.00
2023-05-19T07:45:46.160Z,635.00
2023-05-19T07:46:46.263Z,635.00
2023-05-19T07:47:46.333Z,635.00
2023-05-19T07:48:46.355Z,635.00
2023-05-19T07:49:46.411Z,635.00
2023-05-19T07:50:46.444Z,635.00
2023-05-19T07:51:46.494Z,635.00
2023-05-19T07:52:46.557Z,632.00
2023-05-19T07:53:46.608Z,635.00
2023-05-19T07:54:46.661Z,634.00
2023-05-19T07:55:46.724Z,634.00
2023-05-19T07:56:46.773Z,635.00
2023-05-19T07:57:46.888Z,635.00
2023-05-19T07:58:46.872Z,634.00
2023-05-19T07:59:46.949Z,635.00
2023-05-19T08:00:47.010Z,639.00
2023-05-19T08:01:47.080Z,638.00
2023-05-19T08:02:47.281Z,637.00
2023-05-19T08:03:47.286Z,636.00
2023-05-19T08:04:47.344Z,636.00
2023-05-19T08:05:47.305Z,638.00
2023-05-19T08:06:47.362Z,636.00
2023-05-19T08:07:47.388Z,638.00
2023-05-19T08:08:47.441Z,636.00
2023-05-19T08:09:47.474Z,638.00
2023-05-19T08:10:47.546Z,636.00
2023-05-19T08:11:47.613Z,639.00
2023-05-19T08:12:47.674Z,638.00
2023-05-19T08:13:47.719Z,637.00
2023-05-19T08:14:47.780Z,640.00
2023-05-19T08:15:47.849Z,639.00
2023-05-19T08:16:47.879Z,638.00
2023-05-19T08:17:47.997Z,637.00
2023-05-19T08:18:48.028Z,641.00
2023-05-19T08:19:48.086Z,639.00
2023-05-19T08:20:48.756Z,641.00
2023-05-19T08:21:48.210Z,638.00
2023-05-19T08:22:48.242Z,637.00
2023-05-19T08:23:48.292Z,638.00
2023-05-19T08:24:48.381Z,639.00
2023-05-19T08:25:48.421Z,642.00
2023-05-19T08:26:48.455Z,638.00
2023-05-19T08:27:48.506Z,640.00
2023-05-19T08:28:48.595Z,641.00
2023-05-19T08:29:48.750Z,641.00
2023-05-19T08:30:48.654Z,639.00
2023-05-19T08:31:48.779Z,639.00
2023-05-19T08:32:48.936Z,640.00
2023-05-19T08:33:49.729Z,638.00
2023-05-19T08:34:48.908Z,642.00
2023-05-19T08:35:48.948Z,638.00
2023-05-19T08:36:49.027Z,637.00
2023-05-19T08:37:49.086Z,639.00
2023-05-19T08:38:49.113Z,638.00
2023-05-19T08:39:49.153Z,640.00
2023-05-19T08:40:49.216Z,639.00
2023-05-19T08:41:49.255Z,640.00
2023-05-19T08:42:49.303Z,639.00
2023-05-19T08:43:49.337Z,639.00
2023-05-19T08:44:49.389Z,640.00
2023-05-19T08:45:49.450Z,641.00
2023-05-19T08:46:49.532Z,642.00
2023-05-19T08:47:49.588Z,639.00
2023-05-19T08:48:49.540Z,640.00
2023-05-19T08:49:49.591Z,638.00
2023-05-19T08:50:49.660Z,641.00
2023-05-19T08:51:49.672Z,641.00
2023-05-19T08:52:52.584Z,639.00
2023-05-19T08:53:49.699Z,643.00
2023-05-19T08:54:49.703Z,641.00
2023-05-19T08:55:49.716Z,641.00
2023-05-19T08:56:49.682Z,640.00
2023-05-19T08:57:49.689Z,640.00
2023-05-19T08:58:49.696Z,641.00
2023-05-19T08:59:49.693Z,642.00
2023-05-19T09:00:49.727Z,640.00
2023-05-19T09:01:49.697Z,641.00
2023-05-19T09:02:59.884Z,642.00
2023-05-19T09:03:50.787Z,642.00
2023-05-19T09:04:49.706Z,643.00
2023-05-19T09:05:49.665Z,642.00
2023-05-19T09:06:49.650Z,640.00
2023-05-19T09:07:49.647Z,643.00
2023-05-19T09:08:49.634Z,641.00
2023-05-19T09:09:49.607Z,641.00
2023-05-19T09:10:49.616Z,639.00
2023-05-19T09:11:49.578Z,640.00
2023-05-19T09:12:49.597Z,641.00
2023-05-19T09:13:49.601Z,640.00
2023-05-19T09:14:49.669Z,638.00
2023-05-19T09:15:49.673Z,640.00
2023-05-19T09:16:49.858Z,640.00
2023-05-19T09:17:50.769Z,639.00
2023-05-19T09:18:49.892Z,637.00
2023-05-19T09:19:49.859Z,640.00
2023-05-19T09:20:49.952Z,639.00
2023-05-19T09:21:50.262Z,639.00
2023-05-19T09:22:49.981Z,638.00
2023-05-19T09:23:50.035Z,638.00
2023-05-19T09:24:50.103Z,636.00
2023-05-19T09:25:50.111Z,634.00
2023-05-19T09:26:50.191Z,639.00
2023-05-19T09:27:50.213Z,637.00
2023-05-19T09:28:50.254Z,639.00
2023-05-19T09:29:50.297Z,638.00
2023-05-19T09:30:50.330Z,637.00
2023-05-19T09:31:50.461Z,640.00
2023-05-19T09:32:50.549Z,638.00
2023-05-19T09:33:50.527Z,636.00
2023-05-19T09:34:50.528Z,638.00
2023-05-19T09:35:50.579Z,638.00
2023-05-19T09:36:50.641Z,640.00
2023-05-19T09:37:50.666Z,638.00
2023-05-19T09:38:50.683Z,639.00
2023-05-19T09:39:50.719Z,637.00
2023-05-19T09:40:50.764Z,637.00
2023-05-19T09:41:50.812Z,638.00
2023-05-19T09:42:50.861Z,636.00
2023-05-19T09:43:50.930Z,637.00
2023-05-19T09:44:50.955Z,639.00
2023-05-19T09:45:51.022Z,638.00
2023-05-19T09:46:51.023Z,639.00
2023-05-19T09:47:51.149Z,636.00
2023-05-19T09:48:51.105Z,640.00
2023-05-19T09:49:51.144Z,639.00
2023-05-19T09:50:51.203Z,638.00
2023-05-19T09:51:51.202Z,640.00
2023-05-19T09:52:51.257Z,639.00
2023-05-19T09:53:51.296Z,639.00
2023-05-19T09:54:51.338Z,640.00
2023-05-19T09:55:51.362Z,638.00
2023-05-19T09:56:51.405Z,638.00
2023-05-19T09:57:51.455Z,639.00
2023-05-19T09:58:51.481Z,639.00
2023-05-19T09:59:51.513Z,640.00
2023-05-19T10:00:51.540Z,638.00
2023-05-19T10:01:51.581Z,638.00
2023-05-19T10:02:51.642Z,638.00
2023-05-19T10:03:51.645Z,637.00
2023-05-19T10:04:51.735Z,637.00
2023-05-19T10:05:51.691Z,637.00
2023-05-19T10:06:51.716Z,638.00
2023-05-19T10:07:51.753Z,636.00
2023-05-19T10:08:51.797Z,638.00
2023-05-19T10:09:51.814Z,638.00
2023-05-19T10:10:51.844Z,639.00
2023-05-19T10:11:51.894Z,638.00
2023-05-19T10:12:51.910Z,636.00
2023-05-19T10:13:51.942Z,637.00
2023-05-19T10:14:51.981Z,639.00
2023-05-19T10:16:52.036Z,641.00
2023-05-19T10:17:52.084Z,642.00
2023-05-19T10:18:52.072Z,640.00
2023-05-19T10:19:51.984Z,639.00
2023-05-19T10:20:51.967Z,640.00
2023-05-19T10:21:51.968Z,640.00
2023-05-19T10:22:51.983Z,638.00
2023-05-19T10:23:51.946Z,637.00
2023-05-19T10:24:51.934Z,638.00
2023-05-19T10:25:51.973Z,638.00
2023-05-19T10:26:51.925Z,637.00
2023-05-19T10:27:51.921Z,640.00
2023-05-19T10:28:51.949Z,640.00
2023-05-19T10:29:51.911Z,639.00
2023-05-19T10:30:51.890Z,642.00
2023-05-19T10:31:51.942Z,641.00
2023-05-19T10:32:51.957Z,641.00
2023-05-19T10:33:51.876Z,640.00
2023-05-19T10:34:51.889Z,640.00
2023-05-19T10:35:51.887Z,642.00
2023-05-19T10:36:51.886Z,641.00
2023-05-19T10:37:51.876Z,642.00
2023-05-19T10:38:51.863Z,643.00
2023-05-19T10:39:51.826Z,642.00
2023-05-19T10:40:51.843Z,638.00
2023-05-19T10:41:51.846Z,642.00
2023-05-19T10:42:51.843Z,638.00
2023-05-19T10:43:51.777Z,642.00
2023-05-19T10:44:51.777Z,641.00
2023-05-19T10:45:51.786Z,642.00
2023-05-19T10:46:53.513Z,641.00
2023-05-19T10:47:51.918Z,641.00
2023-05-19T10:48:51.807Z,641.00
2023-05-19T10:49:51.778Z,641.00
2023-05-19T10:50:51.770Z,644.00
2023-05-19T10:51:51.788Z,642.00
2023-05-19T10:52:51.765Z,640.00
2023-05-19T10:53:51.747Z,638.00
2023-05-19T10:54:51.757Z,644.00
2023-05-19T10:55:51.744Z,641.00
2023-05-19T10:56:51.728Z,643.00
2023-05-19T10:57:51.748Z,639.00
2023-05-19T10:58:51.741Z,642.00
2023-05-19T10:59:51.716Z,642.00
2023-05-19T11:00:51.685Z,647.00
2023-05-19T11:01:51.743Z,644.00
2023-05-19T11:02:51.743Z,640.00
2023-05-19T11:03:51.715Z,640.00
2023-05-19T11:04:52.144Z,638.00
2023-05-19T11:05:51.684Z,639.00
2023-05-19T11:06:51.719Z,643.00
2023-05-19T11:07:51.689Z,641.00
2023-05-19T11:08:51.681Z,638.00
2023-05-19T11:09:51.705Z,640.00
2023-05-19T11:10:51.630Z,644.00
2023-05-19T11:11:51.615Z,642.00
2023-05-19T11:12:52.136Z,643.00
2023-05-19T11:13:51.638Z,644.00
2023-05-19T11:14:51.610Z,641.00
2023-05-19T11:15:51.598Z,641.00
2023-05-19T11:16:51.746Z,642.00
2023-05-19T11:17:51.621Z,642.00
2023-05-19T11:18:51.610Z,641.00
2023-05-19T11:19:51.585Z,639.00
2023-05-19T11:20:51.628Z,640.00
2023-05-19T11:21:51.818Z,645.00
2023-05-19T11:22:51.533Z,642.00
2023-05-19T11:23:51.723Z,640.00
2023-05-19T11:24:51.546Z,642.00
2023-05-19T11:25:51.704Z,645.00
2023-05-19T11:26:51.549Z,643.00
2023-05-19T11:27:51.531Z,637.00
2023-05-19T11:28:51.521Z,646.00
2023-05-19T11:29:51.509Z,641.00
2023-05-19T11:30:51.538Z,642.00
2023-05-19T11:31:51.534Z,644.00
2023-05-19T11:32:51.543Z,645.00
2023-05-19T11:33:51.479Z,640.00
2023-05-19T11:34:51.505Z,645.00
2023-05-19T11:35:51.504Z,645.00
2023-05-19T11:36:51.476Z,645.00
2023-05-19T11:37:51.498Z,642.00
2023-05-19T11:38:51.473Z,640.00
2023-05-19T11:39:51.480Z,643.00
2023-05-19T11:40:51.449Z,646.00
2023-05-19T11:41:51.476Z,645.00
2023-05-19T11:42:51.446Z,638.00
2023-05-19T11:43:51.400Z,641.00
2023-05-19T11:44:51.386Z,643.00
2023-05-19T11:45:51.484Z,641.00
2023-05-19T11:46:51.418Z,640.00
2023-05-19T11:48:02.818Z,637.00
2023-05-19T11:48:52.393Z,638.00
2023-05-19T11:49:51.382Z,639.00
2023-05-19T11:50:51.377Z,641.00
2023-05-19T11:51:51.366Z,643.00
2023-05-19T11:52:51.373Z,642.00
2023-05-19T11:53:51.363Z,643.00
2023-05-19T11:54:51.354Z,640.00
2023-05-19T11:55:51.753Z,644.00
2023-05-19T11:56:51.351Z,642.00
2023-05-19T11:58:03.045Z,642.00
2023-05-19T11:58:52.326Z,642.00
2023-05-19T11:59:51.320Z,643.00
2023-05-19T12:00:51.311Z,641.00
2023-05-19T12:01:51.303Z,643.00
2023-05-19T12:02:51.398Z,644.00
2023-05-19T12:03:51.339Z,641.00
2023-05-19T12:04:51.334Z,646.00
2023-05-19T12:05:51.453Z,642.00
2023-05-19T12:06:51.256Z,643.00
2023-05-19T12:07:51.280Z,642.00
2023-05-19T12:08:51.286Z,647.00
2023-05-19T12:09:51.252Z,643.00
2023-05-19T12:10:51.245Z,646.00
2023-05-19T12:11:51.286Z,646.00
2023-05-19T12:12:51.258Z,642.00
2023-05-19T12:13:51.195Z,646.00
2023-05-19T12:14:51.211Z,647.00
2023-05-19T12:15:51.282Z,642.00
2023-05-19T12:16:51.368Z,646.00
2023-05-19T12:17:51.284Z,643.00
2023-05-19T12:18:51.223Z,645.00
2023-05-19T12:19:51.210Z,643.00
2023-05-19T12:20:51.173Z,643.00
2023-05-19T12:21:51.145Z,645.00
2023-05-19T12:22:51.182Z,647.00
2023-05-19T12:23:51.153Z,644.00
2023-05-19T12:24:51.124Z,642.00
2023-05-19T12:25:51.149Z,644.00
2023-05-19T12:26:51.134Z,644.00
2023-05-19T12:27:51.129Z,645.00
2023-05-19T12:28:51.106Z,643.00
2023-05-19T12:29:51.139Z,645.00